createdAt,value
2019-04-29T00:01:37.897Z,46.68
2019-04-29T00:04:09.375Z,45.87
2019-04-29T00:06:40.845Z,47.16
2019-04-29T00:09:17.601Z,46.84
2019-04-29T00:11:49.068Z,47.13
2019-04-29T00:14:20.417Z,48.10
2019-04-29T00:17:02.620Z,48.77
2019-04-29T00:19:38.471Z,48.20
2019-04-29T00:22:09.847Z,48.76
2019-04-29T00:24:41.366Z,49.29
2019-04-29T00:27:12.900Z,49.43
2019-04-29T00:29:45.561Z,50.14
2019-04-29T00:32:17.074Z,50.61
2019-04-29T00:34:48.551Z,51.10
2019-04-29T00:37:30.514Z,51.06
2019-04-29T00:40:03.713Z,51.15
2019-04-29T00:42:36.794Z,51.01
2019-04-29T00:45:09.599Z,48.87
2019-04-29T00:47:41.143Z,48.74
2019-04-29T00:50:13.072Z,50.17
2019-04-29T00:52:44.688Z,50.46
2019-04-29T00:55:17.820Z,52.17
2019-04-29T00:57:49.202Z,51.71
2019-04-29T01:00:28.237Z,51.25
2019-04-29T01:02:59.641Z,51.14
2019-04-29T01:05:31.164Z,51.37
2019-04-29T01:08:03.616Z,50.70
2019-04-29T01:10:35.024Z,50.28
2019-04-29T01:13:06.524Z,50.15
2019-04-29T01:15:37.919Z,49.05
2019-04-29T01:18:09.397Z,48.23
2019-04-29T01:20:40.824Z,47.98
2019-04-29T01:23:12.342Z,47.84
2019-04-29T01:25:45.410Z,48.14
2019-04-29T01:28:18.622Z,50.18
2019-04-29T01:30:55.822Z,50.63
2019-04-29T01:33:27.209Z,50.15
2019-04-29T01:36:06.001Z,52.28
2019-04-29T01:38:38.836Z,52.43
2019-04-29T01:41:30.228Z,52.13
2019-04-29T01:44:02.793Z,52.09
2019-04-29T01:46:34.307Z,51.32
2019-04-29T01:49:05.689Z,51.15
2019-04-29T01:51:37.155Z,51.59
2019-04-29T01:54:08.630Z,50.60
2019-04-29T01:56:39.998Z,49.69
2019-04-29T01:59:11.573Z,52.15
2019-04-29T02:01:43.033Z,52.77
2019-04-29T02:04:14.523Z,52.53
2019-04-29T02:06:46.143Z,53.83
2019-04-29T02:09:27.989Z,53.37
2019-04-29T02:11:59.419Z,53.27
2019-04-29T02:14:30.830Z,52.00
2019-04-29T02:17:02.369Z,49.59
2019-04-29T02:19:33.827Z,51.49
2019-04-29T02:22:09.567Z,51.10
2019-04-29T02:24:43.653Z,50.98
2019-04-29T02:27:16.127Z,49.62
2019-04-29T02:29:47.597Z,48.82
2019-04-29T02:32:19.164Z,48.74
2019-04-29T02:34:50.530Z,49.02
2019-04-29T02:37:23.695Z,48.80
2019-04-29T02:39:56.819Z,49.14
2019-04-29T02:42:48.045Z,48.87
2019-04-29T02:45:21.118Z,49.19
2019-04-29T02:47:52.681Z,49.25
2019-04-29T02:50:24.247Z,49.58
2019-04-29T02:52:55.717Z,49.09
2019-04-29T02:55:28.823Z,50.62
2019-04-29T02:58:02.013Z,51.61
2019-04-29T03:00:51.394Z,51.47
2019-04-29T03:03:24.629Z,52.63
2019-04-29T03:06:03.521Z,52.04
2019-04-29T03:08:34.916Z,51.27
2019-04-29T03:11:06.359Z,52.20
2019-04-29T03:13:37.777Z,53.47
2019-04-29T03:16:09.348Z,53.25
2019-04-29T03:18:42.359Z,51.09
2019-04-29T03:21:27.405Z,51.53
2019-04-29T03:23:59.088Z,51.45
2019-04-29T03:26:30.648Z,51.45
2019-04-29T03:29:02.142Z,52.12
2019-04-29T03:31:39.084Z,52.06
2019-04-29T03:34:06.723Z,51.86
2019-04-29T03:36:38.325Z,50.26
2019-04-29T03:39:09.745Z,50.09
2019-04-29T03:41:41.183Z,50.34
2019-04-29T03:44:13.754Z,50.75
2019-04-29T03:46:45.335Z,51.51
2019-04-29T03:49:16.733Z,50.30
2019-04-29T03:51:48.227Z,49.89
2019-04-29T03:54:19.791Z,49.13
2019-04-29T03:56:51.402Z,48.89
2019-04-29T03:59:23.139Z,49.16
2019-04-29T04:01:56.170Z,47.84
2019-04-29T04:04:45.554Z,47.46
2019-04-29T04:07:27.818Z,47.08
2019-04-29T04:09:59.472Z,45.95
2019-04-29T04:12:31.081Z,44.80
2019-04-29T04:15:02.668Z,44.14
2019-04-29T04:17:53.514Z,43.87
2019-04-29T04:20:25.162Z,43.11
2019-04-29T04:22:56.874Z,42.88
2019-04-29T04:25:28.398Z,43.41
2019-04-29T04:27:59.858Z,43.41
2019-04-29T04:30:31.368Z,43.06
2019-04-29T04:33:02.916Z,43.28
2019-04-29T04:35:34.408Z,42.62
2019-04-29T04:38:05.992Z,42.08
2019-04-29T04:40:39.122Z,42.12
2019-04-29T04:43:10.626Z,42.12
2019-04-29T04:45:42.328Z,41.07
2019-04-29T04:48:13.749Z,41.55
2019-04-29T04:50:45.251Z,41.01
2019-04-29T04:53:16.667Z,41.21
2019-04-29T04:55:50.273Z,40.22
2019-04-29T04:58:22.089Z,39.45
2019-04-29T05:00:53.718Z,39.82
2019-04-29T05:03:25.365Z,39.37
2019-04-29T05:05:56.867Z,38.79
2019-04-29T05:08:28.413Z,37.42
2019-04-29T05:11:00.060Z,38.82
2019-04-29T05:13:31.460Z,38.96
2019-04-29T05:16:03.074Z,37.68
2019-04-29T05:18:34.457Z,36.77
2019-04-29T05:21:05.951Z,37.55
2019-04-29T05:23:37.336Z,37.95
2019-04-29T05:26:08.781Z,37.79
2019-04-29T05:28:40.392Z,35.81
2019-04-29T05:31:12.033Z,35.60
2019-04-29T05:33:43.626Z,36.57
2019-04-29T05:36:19.517Z,35.02
2019-04-29T05:38:55.647Z,31.65
2019-04-29T05:41:30.046Z,30.68
2019-04-29T05:44:02.232Z,29.90
2019-04-29T05:46:36.509Z,33.68
2019-04-29T05:49:09.516Z,35.47
2019-04-29T05:51:57.558Z,36.75
2019-04-29T05:54:31.782Z,34.06
2019-04-29T05:57:01.733Z,32.08
2019-04-29T05:59:33.157Z,32.17
2019-04-29T06:02:04.580Z,33.75
2019-04-29T06:04:36.135Z,36.02
2019-04-29T06:07:07.612Z,36.91
2019-04-29T06:09:39.169Z,35.19
2019-04-29T06:12:10.558Z,35.15
2019-04-29T06:14:42.010Z,35.92
2019-04-29T06:17:13.510Z,35.47
2019-04-29T06:19:45.011Z,36.21
2019-04-29T06:22:16.689Z,38.93
2019-04-29T06:24:48.284Z,38.81
2019-04-29T06:27:19.809Z,39.94
2019-04-29T06:29:51.319Z,38.57
2019-04-29T06:32:25.056Z,39.27
2019-04-29T06:34:57.054Z,39.73
2019-04-29T06:37:28.665Z,40.70
2019-04-29T06:40:00.107Z,39.47
2019-04-29T06:42:33.441Z,40.54
2019-04-29T06:45:07.669Z,40.49
2019-04-29T06:47:39.271Z,40.01
2019-04-29T06:50:10.761Z,41.44
2019-04-29T06:52:42.396Z,41.12
2019-04-29T06:55:14.237Z,40.94
2019-04-29T06:57:45.707Z,40.69
2019-04-29T07:00:17.502Z,40.96
2019-04-29T07:02:51.070Z,41.02
2019-04-29T07:05:22.622Z,39.89
2019-04-29T07:07:54.234Z,40.47
2019-04-29T07:10:26.973Z,40.89
2019-04-29T07:13:00.438Z,41.32
2019-04-29T07:15:32.032Z,41.24
2019-04-29T07:18:03.549Z,40.95
2019-04-29T07:20:37.194Z,41.00
2019-04-29T07:23:08.394Z,40.82
2019-04-29T07:25:39.890Z,41.07
2019-04-29T07:28:13.694Z,41.99
2019-04-29T07:31:00.459Z,42.20
2019-04-29T07:33:22.622Z,42.82
2019-04-29T07:35:52.712Z,43.97
2019-04-29T07:38:24.190Z,44.15
2019-04-29T07:40:56.793Z,44.47
2019-04-29T07:43:28.662Z,42.52
2019-04-29T07:46:05.560Z,43.16
2019-04-29T07:48:41.861Z,44.26
2019-04-29T07:51:12.195Z,44.27
2019-04-29T07:53:45.458Z,45.08
2019-04-29T07:56:16.901Z,44.64
2019-04-29T07:58:48.718Z,44.89
2019-04-29T08:01:24.538Z,44.06
2019-04-29T08:03:53.596Z,43.21
2019-04-29T08:06:25.260Z,43.31
2019-04-29T08:09:07.058Z,41.77
2019-04-29T08:11:34.361Z,41.55
2019-04-29T08:14:05.862Z,41.87
2019-04-29T08:16:37.340Z,41.97
2019-04-29T08:19:08.799Z,41.09
2019-04-29T08:21:40.269Z,41.41
2019-04-29T08:24:15.922Z,40.36
2019-04-29T08:26:47.627Z,41.24
2019-04-29T08:29:18.426Z,42.40
2019-04-29T08:31:51.758Z,43.98
2019-04-29T08:34:24.369Z,44.32
2019-04-29T08:36:57.214Z,44.56
2019-04-29T08:39:29.332Z,44.46
2019-04-29T08:42:08.729Z,44.37
2019-04-29T08:44:44.420Z,45.05
2019-04-29T08:47:22.944Z,45.95
2019-04-29T08:49:53.443Z,47.00
2019-04-29T08:52:24.827Z,47.64
2019-04-29T08:54:57.365Z,47.86
2019-04-29T08:57:31.945Z,48.51
2019-04-29T09:00:02.113Z,50.16
2019-04-29T09:02:35.780Z,50.21
2019-04-29T09:05:12.846Z,50.98
2019-04-29T09:07:44.181Z,51.21
2019-04-29T09:10:15.983Z,51.85
2019-04-29T09:12:47.595Z,51.37
2019-04-29T09:15:19.403Z,52.30
2019-04-29T09:17:50.867Z,52.04
2019-04-29T09:20:22.373Z,51.81
2019-04-29T09:22:55.586Z,51.95
2019-04-29T09:25:28.642Z,52.29
2019-04-29T09:28:01.684Z,52.02
2019-04-29T09:30:33.376Z,52.68
2019-04-29T09:33:08.692Z,52.14
2019-04-29T09:35:40.509Z,52.98
2019-04-29T09:38:12.074Z,54.29
2019-04-29T09:40:45.758Z,55.68
2019-04-29T09:43:25.856Z,56.86
2019-04-29T09:46:03.199Z,57.24
2019-04-29T09:48:36.244Z,58.34
2019-04-29T09:51:17.279Z,58.79
2019-04-29T09:53:42.382Z,58.60
2019-04-29T09:56:15.757Z,59.26
2019-04-29T09:58:47.330Z,60.37
2019-04-29T10:01:29.626Z,62.37
2019-04-29T10:04:05.658Z,64.98
2019-04-29T10:06:38.869Z,67.82
2019-04-29T10:09:11.227Z,69.42
2019-04-29T10:11:42.814Z,68.83
2019-04-29T10:14:14.461Z,70.62
2019-04-29T10:16:56.947Z,71.09
2019-04-29T10:19:30.063Z,68.86
2019-04-29T10:22:01.589Z,65.25
2019-04-29T10:24:33.035Z,64.08
2019-04-29T10:27:07.267Z,64.22
2019-04-29T10:29:39.625Z,60.96
2019-04-29T10:32:11.558Z,59.10
2019-04-29T10:34:43.306Z,59.70
2019-04-29T10:37:16.141Z,57.82
2019-04-29T10:39:52.049Z,57.97
2019-04-29T10:42:31.363Z,57.34
2019-04-29T10:45:20.876Z,57.43
2019-04-29T10:47:56.906Z,59.55
2019-04-29T10:50:33.234Z,61.94
2019-04-29T10:53:06.624Z,63.41
2019-04-29T10:55:38.562Z,62.67
2019-04-29T10:58:10.250Z,62.94
2019-04-29T11:00:57.253Z,61.98
2019-04-29T11:03:28.164Z,62.04
2019-04-29T11:06:01.774Z,62.29
2019-04-29T11:08:38.174Z,63.74
2019-04-29T11:11:22.196Z,63.46
2019-04-29T11:13:47.062Z,64.67
2019-04-29T11:16:16.138Z,66.06
2019-04-29T11:18:47.611Z,63.34
2019-04-29T11:21:19.098Z,65.95
2019-04-29T11:24:08.594Z,65.86
2019-04-29T11:26:44.559Z,65.81
2019-04-29T11:29:15.142Z,64.29
2019-04-29T11:31:49.189Z,64.73
2019-04-29T11:34:29.222Z,65.35
2019-04-29T11:37:00.692Z,66.36
2019-04-29T11:39:32.338Z,66.64
2019-04-29T11:42:07.487Z,67.47
2019-04-29T11:44:38.173Z,68.11
2019-04-29T11:47:09.372Z,70.17
2019-04-29T11:49:42.599Z,70.77
2019-04-29T11:52:14.152Z,69.79
2019-04-29T11:54:45.667Z,69.63
2019-04-29T11:57:21.701Z,70.02
2019-04-29T12:00:00.986Z,70.99
2019-04-29T12:02:45.179Z,71.27
2019-04-29T12:05:16.079Z,70.82
2019-04-29T12:07:47.593Z,71.82
2019-04-29T12:10:19.200Z,72.27
2019-04-29T12:12:50.795Z,72.41
2019-04-29T12:15:45.126Z,73.00
2019-04-29T12:18:16.878Z,73.17
2019-04-29T12:20:50.240Z,73.92
2019-04-29T12:23:21.775Z,74.27
2019-04-29T12:25:53.353Z,74.29
2019-04-29T12:28:26.970Z,73.93
2019-04-29T12:30:59.631Z,73.42
2019-04-29T12:33:37.002Z,73.83
2019-04-29T12:36:07.780Z,73.81
2019-04-29T12:38:48.840Z,73.78
2019-04-29T12:41:31.648Z,73.49
2019-04-29T12:44:04.500Z,72.83
2019-04-29T12:46:40.683Z,72.34
2019-04-29T12:49:13.814Z,72.18
2019-04-29T12:51:45.915Z,72.41
2019-04-29T12:54:17.395Z,72.65
2019-04-29T12:56:49.531Z,72.50
2019-04-29T12:59:22.347Z,73.14
2019-04-29T13:02:01.519Z,73.31
2019-04-29T13:04:49.816Z,72.44
2019-04-29T13:07:33.821Z,73.44
2019-04-29T13:10:13.771Z,72.85
2019-04-29T13:12:46.181Z,72.55
2019-04-29T13:15:37.698Z,72.95
2019-04-29T13:18:13.874Z,73.04
2019-04-29T13:20:45.643Z,73.42
2019-04-29T13:23:19.523Z,73.14
2019-04-29T13:25:50.967Z,73.00
2019-04-29T13:28:29.766Z,72.75
2019-04-29T13:30:56.716Z,73.90
2019-04-29T13:33:30.409Z,73.55
2019-04-29T13:36:01.996Z,73.14
2019-04-29T13:38:33.724Z,73.60
2019-04-29T13:41:13.557Z,74.53
2019-04-29T13:43:38.780Z,74.85
2019-04-29T13:46:28.420Z,74.81
2019-04-29T13:49:17.955Z,75.53
2019-04-29T13:51:51.010Z,75.87
2019-04-29T13:54:22.460Z,75.40
2019-04-29T13:56:56.350Z,75.38
2019-04-29T13:59:29.152Z,75.86
2019-04-29T14:02:22.784Z,76.85
2019-04-29T14:04:55.970Z,77.22
2019-04-29T14:07:26.268Z,77.35
2019-04-29T14:09:57.543Z,77.72
2019-04-29T14:15:02.313Z,77.47
2019-04-29T14:17:35.620Z,77.42
2019-04-29T14:20:10.891Z,77.33
2019-04-29T14:22:41.374Z,77.67
2019-04-29T14:25:15.462Z,77.97
2019-04-29T14:27:46.938Z,77.72
2019-04-29T14:30:20.987Z,78.48
2019-04-29T14:32:54.444Z,78.35
2019-04-29T14:35:43.766Z,78.48
2019-04-29T14:38:12.873Z,78.60
2019-04-29T14:40:44.530Z,78.08
2019-04-29T14:43:35.792Z,78.09
2019-04-29T14:46:26.992Z,78.81
2019-04-29T14:49:09.054Z,78.66
2019-04-29T14:51:40.506Z,78.98
2019-04-29T14:54:12.082Z,78.63
2019-04-29T14:56:43.550Z,78.13
2019-04-29T14:59:15.349Z,77.61
2019-04-29T15:01:51.754Z,77.95
2019-04-29T15:04:24.962Z,77.90
2019-04-29T15:06:56.644Z,78.14
2019-04-29T15:09:29.503Z,77.54
2019-04-29T15:12:02.909Z,77.67
2019-04-29T15:14:54.734Z,77.59
2019-04-29T15:17:35.337Z,77.35
2019-04-29T15:20:09.681Z,77.27
2019-04-29T15:22:42.111Z,77.71
2019-04-29T15:25:16.783Z,78.08
2019-04-29T15:27:47.176Z,77.97
2019-04-29T15:30:18.928Z,78.24
2019-04-29T15:32:53.175Z,78.06
2019-04-29T15:35:24.293Z,78.28
2019-04-29T15:37:57.018Z,78.54
2019-04-29T15:40:28.784Z,78.29
2019-04-29T15:43:00.611Z,78.44
2019-04-29T15:45:34.131Z,78.87
2019-04-29T15:48:05.577Z,78.80
2019-04-29T15:50:38.967Z,78.60
2019-04-29T15:53:10.349Z,78.14
2019-04-29T15:55:41.914Z,78.72
2019-04-29T15:58:13.490Z,78.22
2019-04-29T16:00:45.154Z,78.66
2019-04-29T16:03:19.578Z,79.93
2019-04-29T16:06:19.846Z,80.38
2019-04-29T16:08:34.816Z,80.84
2019-04-29T16:11:10.892Z,80.56
2019-04-29T16:13:47.760Z,80.76
2019-04-29T16:16:15.909Z,81.05
2019-04-29T16:18:47.543Z,81.25
2019-04-29T16:21:20.278Z,81.12
2019-04-29T16:23:57.454Z,80.70
2019-04-29T16:26:30.137Z,80.83
2019-04-29T16:28:58.542Z,81.02
2019-04-29T16:31:30.001Z,81.30
2019-04-29T16:34:01.621Z,81.36
2019-04-29T16:36:33.670Z,81.50
2019-04-29T16:39:06.875Z,81.91
2019-04-29T16:41:50.969Z,81.88
2019-04-29T16:44:34.646Z,82.21
2019-04-29T16:46:54.517Z,82.17
2019-04-29T16:49:26.232Z,81.73
2019-04-29T16:52:00.575Z,81.07
2019-04-29T16:54:32.189Z,81.31
2019-04-29T16:57:03.843Z,81.71
2019-04-29T16:59:35.590Z,81.50
2019-04-29T17:02:07.102Z,81.32
2019-04-29T17:04:38.801Z,81.32
2019-04-29T17:07:13.345Z,81.54
2019-04-29T17:10:02.413Z,81.06
2019-04-29T17:12:38.046Z,81.08
2019-04-29T17:15:23.733Z,81.16
2019-04-29T17:17:43.034Z,81.97
2019-04-29T17:20:15.639Z,81.82
2019-04-29T17:22:48.318Z,81.83
2019-04-29T17:25:20.263Z,81.80
2019-04-29T17:27:53.722Z,82.10
2019-04-29T17:30:46.685Z,82.17
2019-04-29T17:33:26.364Z,82.10
2019-04-29T17:35:49.452Z,82.23
2019-04-29T17:38:21.214Z,82.75
2019-04-29T17:40:52.754Z,82.73
2019-04-29T17:43:25.956Z,83.13
2019-04-29T17:46:05.352Z,82.87
2019-04-29T17:48:48.641Z,82.84
2019-04-29T17:51:21.905Z,82.37
2019-04-29T17:53:58.883Z,82.44
2019-04-29T17:56:38.126Z,82.56
2019-04-29T17:59:29.556Z,82.41
2019-04-29T18:02:21.649Z,82.20
2019-04-29T18:04:54.206Z,82.81
2019-04-29T18:07:35.093Z,82.76
2019-04-29T18:10:29.488Z,82.97
2019-04-29T18:13:00.508Z,82.29
2019-04-29T18:15:47.064Z,82.50
2019-04-29T18:18:12.371Z,82.28
2019-04-29T18:20:47.222Z,81.92
2019-04-29T18:23:23.546Z,82.09
2019-04-29T18:25:59.441Z,82.15
2019-04-29T18:28:31.081Z,82.30
2019-04-29T18:31:05.798Z,82.50
2019-04-29T18:33:36.942Z,82.18
2019-04-29T18:36:19.078Z,81.98
2019-04-29T18:38:42.564Z,81.97
2019-04-29T18:41:24.330Z,82.22
2019-04-29T18:43:49.619Z,82.14
2019-04-29T18:46:21.354Z,82.26
2019-04-29T18:48:55.880Z,82.66
2019-04-29T18:51:28.791Z,82.45
2019-04-29T18:54:00.301Z,82.36
2019-04-29T18:56:32.183Z,82.25
2019-04-29T18:59:05.407Z,82.10
2019-04-29T19:01:37.174Z,81.95
2019-04-29T19:04:17.370Z,81.91
2019-04-29T19:06:51.235Z,81.92
2019-04-29T19:09:27.357Z,82.14
2019-04-29T19:12:01.731Z,82.14
2019-04-29T19:14:34.826Z,82.33
2019-04-29T19:17:08.145Z,82.22
2019-04-29T19:19:39.739Z,82.17
2019-04-29T19:22:11.264Z,82.56
2019-04-29T19:24:46.194Z,82.82
2019-04-29T19:27:16.233Z,82.61
2019-04-29T19:29:47.908Z,83.01
2019-04-29T19:32:23.109Z,82.56
2019-04-29T19:34:54.954Z,83.14
2019-04-29T19:37:32.098Z,82.72
2019-04-29T19:39:59.809Z,82.67
2019-04-29T19:42:35.892Z,82.43
2019-04-29T19:45:06.437Z,82.69
2019-04-29T19:47:38.542Z,82.78
2019-04-29T19:50:10.548Z,82.89
2019-04-29T19:52:42.164Z,82.83
2019-04-29T19:55:14.812Z,83.04
2019-04-29T19:57:50.249Z,83.32
2019-04-29T20:00:28.119Z,83.32
2019-04-29T20:02:53.962Z,82.92
2019-04-29T20:05:40.107Z,83.12
2019-04-29T20:08:21.383Z,82.99
2019-04-29T20:10:50.536Z,83.37
2019-04-29T20:13:20.089Z,83.34
2019-04-29T20:16:09.890Z,83.45
2019-04-29T20:21:20.739Z,83.51
2019-04-29T20:21:28.766Z,83.45
2019-04-29T20:23:52.387Z,83.31
2019-04-29T20:26:28.401Z,83.38
2019-04-29T20:28:55.722Z,83.31
2019-04-29T20:31:38.862Z,83.23
2019-04-29T20:34:09.594Z,83.06
2019-04-29T20:36:43.048Z,83.23
2019-04-29T20:39:22.832Z,83.05
2019-04-29T20:41:49.220Z,83.11
2019-04-29T20:44:21.063Z,83.18
2019-04-29T20:47:14.249Z,83.29
2019-04-29T20:49:26.309Z,83.41
2019-04-29T20:52:08.962Z,83.70
2019-04-29T20:54:42.389Z,83.79
2019-04-29T20:57:18.844Z,83.96
2019-04-29T20:59:50.365Z,83.97
2019-04-29T21:02:31.199Z,84.05
2019-04-29T21:04:57.847Z,84.64
2019-04-29T21:07:28.636Z,84.42
2019-04-29T21:10:06.812Z,84.73
2019-04-29T21:12:55.771Z,84.80
2019-04-29T21:15:36.172Z,84.95
2019-04-29T21:18:10.315Z,85.16
2019-04-29T21:20:41.417Z,85.34
2019-04-29T21:23:13.001Z,85.06
2019-04-29T21:25:45.811Z,85.12
2019-04-29T21:28:17.580Z,85.42
2019-04-29T21:30:49.158Z,85.09
2019-04-29T21:33:21.643Z,85.58
2019-04-29T21:36:13.243Z,85.70
2019-04-29T21:39:01.870Z,86.26
2019-04-29T21:41:37.561Z,86.26
2019-04-29T21:44:09.057Z,86.13
2019-04-29T21:46:40.703Z,86.31
2019-04-29T21:49:12.747Z,86.38
2019-04-29T21:51:46.575Z,86.52
2019-04-29T21:54:17.982Z,87.20
2019-04-29T21:56:50.450Z,87.14
2019-04-29T21:59:21.976Z,87.30
2019-04-29T22:01:53.578Z,87.71
2019-04-29T22:04:25.095Z,87.95
2019-04-29T22:06:59.877Z,88.19
2019-04-29T22:09:36.040Z,88.63
2019-04-29T22:12:05.653Z,89.01
2019-04-29T22:14:37.457Z,89.33
2019-04-29T22:17:08.809Z,89.45
2019-04-29T22:19:40.432Z,89.85
2019-04-29T22:22:11.929Z,89.93
2019-04-29T22:24:43.557Z,89.95
2019-04-29T22:27:16.165Z,90.07
2019-04-29T22:29:48.059Z,90.25
2019-04-29T22:32:19.635Z,90.27
2019-04-29T22:34:54.458Z,90.17
2019-04-29T22:37:25.506Z,89.98
2019-04-29T22:39:58.770Z,89.66
2019-04-29T22:42:37.849Z,90.08
2019-04-29T22:45:09.650Z,89.99
2019-04-29T22:47:41.050Z,89.92
2019-04-29T22:50:13.641Z,89.54
2019-04-29T22:52:45.403Z,88.92
2019-04-29T22:55:16.951Z,88.85
2019-04-29T22:57:48.551Z,88.92
2019-04-29T23:00:28.010Z,88.99
2019-04-29T23:02:57.695Z,89.55
2019-04-29T23:05:28.010Z,88.91
2019-04-29T23:08:00.575Z,88.85
2019-04-29T23:10:32.139Z,88.97
2019-04-29T23:13:05.993Z,88.81
2019-04-29T23:15:37.382Z,88.74
2019-04-29T23:18:09.422Z,88.52
2019-04-29T23:20:45.581Z,88.85
2019-04-29T23:23:18.982Z,88.82
2019-04-29T23:25:52.141Z,89.08
2019-04-29T23:28:26.872Z,89.10
2019-04-29T23:30:56.972Z,88.99
2019-04-29T23:33:28.583Z,89.01
2019-04-29T23:36:00.134Z,89.03
2019-04-29T23:38:31.623Z,89.06
2019-04-29T23:41:03.154Z,88.89
2019-04-29T23:43:35.561Z,88.76
2019-04-29T23:46:07.327Z,89.05
2019-04-29T23:48:39.774Z,88.91
2019-04-29T23:51:11.533Z,88.85
2019-04-29T23:53:45.209Z,88.77
2019-04-29T23:56:16.800Z,88.79
2019-04-29T23:58:53.033Z,88.89
